Terminal Aerodrome Forecast
Issued by NWS Jacksonville, FL

Home | Current Version | Previous Version | Text Only | Print | Product List | Glossary On
Versions: 1 2 3 4 5 6 7 8 9 10 11 12 13 14 15 16 17 18 19 20 21
776
FTUS42 KJAX 140538
TAFJAX
TAF
KJAX 140538Z 1406/1506 VRB03KT P6SM SKC
     FM141400 04008KT P6SM FEW030 BKN300
     FM141900 07012KT P6SM BKN035 BKN250
     FM142300 07007KT P6SM OVC030
     FM150400 VRB03KT P6SM SCT015 OVC020=

USA.gov is the U.S. government's official web portal to all federal, state and local government web resources and services.